Terminal Aerodrome Forecast
Issued by NWS

Home | Current Version | Previous Version | Text Only | Print | Product List | Glossary On
Versions: 1 2 3 4 5 6 7 8 9 10 11 12 13 14
224
FTUS45 KTFX 291127
TAFLWT
TAF
KLWT 291127Z 2912/3012 15006KT P6SM FEW120
     FM291800 28010KT P6SM SCT100 BKN150
     FM300200 19007KT P6SM -SHRA SCT030 BKN060=

USA.gov is the U.S. government's official web portal to all federal, state and local government web resources and services.